sensor_id;sensor_type;location;lat;lon;timestamp;pressure;altitude;pressure_sealevel;temperature;humidity
42887;BME280;29032;56.028;92.904;2022-12-24T00:01:12;101892.16;;;-14.44;39.16
42887;BME280;29032;56.028;92.904;2022-12-24T00:06:17;101889.69;;;-14.50;39.13
42887;BME280;29032;56.028;92.904;2022-12-24T00:11:24;101887.94;;;-14.66;37.96
42887;BME280;29032;56.028;92.904;2022-12-24T00:16:26;101873.31;;;-14.98;37.92
42887;BME280;29032;56.028;92.904;2022-12-24T00:21:28;101883.78;;;-15.06;39.72
42887;BME280;29032;56.028;92.904;2022-12-24T00:26:32;101874.34;;;-14.91;39.65
42887;BME280;29032;56.028;92.904;2022-12-24T00:31:35;101870.94;;;-14.79;39.05
42887;BME280;29032;56.028;92.904;2022-12-24T00:36:37;101867.38;;;-14.71;39.20
42887;BME280;29032;56.028;92.904;2022-12-24T00:41:40;101869.88;;;-14.66;39.05
42887;BME280;29032;56.028;92.904;2022-12-24T00:46:42;101870.78;;;-14.62;39.03
42887;BME280;29032;56.028;92.904;2022-12-24T00:51:45;101877.09;;;-14.58;39.17
42887;BME280;29032;56.028;92.904;2022-12-24T00:56:48;101869.19;;;-14.63;39.36
42887;BME280;29032;56.028;92.904;2022-12-24T01:01:50;101865.63;;;-14.67;39.29
42887;BME280;29032;56.028;92.904;2022-12-24T01:06:52;101868.31;;;-14.67;39.39
42887;BME280;29032;56.028;92.904;2022-12-24T01:11:56;101864.25;;;-14.73;39.67
42887;BME280;29032;56.028;92.904;2022-12-24T01:16:58;101859.97;;;-14.74;39.21
42887;BME280;29032;56.028;92.904;2022-12-24T01:22:00;101854.13;;;-14.76;39.22
42887;BME280;29032;56.028;92.904;2022-12-24T01:27:04;101853.47;;;-14.73;38.76
42887;BME280;29032;56.028;92.904;2022-12-24T01:32:06;101854.25;;;-14.72;38.91
42887;BME280;29032;56.028;92.904;2022-12-24T01:37:08;101837.84;;;-14.80;38.56
42887;BME280;29032;56.028;92.904;2022-12-24T01:42:21;101859.75;;;-14.69;38.38
42887;BME280;29032;56.028;92.904;2022-12-24T01:47:26;101850.19;;;-14.79;38.59
42887;BME280;29032;56.028;92.904;2022-12-24T01:52:31;101857.94;;;-14.77;38.28
42887;BME280;29032;56.028;92.904;2022-12-24T01:57:38;101858.19;;;-14.91;38.94
42887;BME280;29032;56.028;92.904;2022-12-24T02:02:44;101854.28;;;-14.93;38.35
42887;BME280;29032;56.028;92.904;2022-12-24T02:07:47;101855.72;;;-14.96;38.52
42887;BME280;29032;56.028;92.904;2022-12-24T02:12:51;101844.56;;;-15.07;38.47
42887;BME280;29032;56.028;92.904;2022-12-24T02:18:01;101851.16;;;-15.25;38.31
42887;BME280;29032;56.028;92.904;2022-12-24T02:29:02;101848.22;;;-15.32;38.83
42887;BME280;29032;56.028;92.904;2022-12-24T02:34:18;101844.56;;;-15.27;38.73
42887;BME280;29032;56.028;92.904;2022-12-24T02:39:27;101839.31;;;-15.24;38.74
42887;BME280;29032;56.028;92.904;2022-12-24T02:44:38;101833.28;;;-15.21;38.54
42887;BME280;29032;56.028;92.904;2022-12-24T02:49:44;101829.47;;;-15.20;38.36
42887;BME280;29032;56.028;92.904;2022-12-24T02:54:46;101830.78;;;-15.26;38.48
42887;BME280;29032;56.028;92.904;2022-12-24T02:59:59;101831.72;;;-15.22;38.69
42887;BME280;29032;56.028;92.904;2022-12-24T03:05:12;101832.81;;;-15.23;38.22
42887;BME280;29032;56.028;92.904;2022-12-24T03:10:22;101822.94;;;-15.31;38.33
42887;BME280;29032;56.028;92.904;2022-12-24T03:15:28;101812.56;;;-15.41;39.11
42887;BME280;29032;56.028;92.904;2022-12-24T03:20:34;101814.13;;;-15.40;38.74
42887;BME280;29032;56.028;92.904;2022-12-24T03:25:39;101809.94;;;-15.29;38.72
42887;BME280;29032;56.028;92.904;2022-12-24T03:30:43;101797.38;;;-15.25;38.24
42887;BME280;29032;56.028;92.904;2022-12-24T03:35:47;101788.09;;;-15.27;38.90
42887;BME280;29032;56.028;92.904;2022-12-24T03:40:49;101785.53;;;-15.24;38.49
42887;BME280;29032;56.028;92.904;2022-12-24T03:45:51;101785.81;;;-15.17;38.99
42887;BME280;29032;56.028;92.904;2022-12-24T03:50:55;101782.69;;;-15.07;38.59
42887;BME280;29032;56.028;92.904;2022-12-24T03:55:57;101784.16;;;-15.09;38.69
42887;BME280;29032;56.028;92.904;2022-12-24T04:00:59;101767.47;;;-15.03;39.20
42887;BME280;29032;56.028;92.904;2022-12-24T04:06:05;101765.03;;;-14.95;39.40
42887;BME280;29032;56.028;92.904;2022-12-24T04:11:09;101752.28;;;-14.86;39.00
42887;BME280;29032;56.028;92.904;2022-12-24T04:16:14;101745.59;;;-14.80;39.04
42887;BME280;29032;56.028;92.904;2022-12-24T04:21:18;101745.81;;;-14.73;39.26
42887;BME280;29032;56.028;92.904;2022-12-24T04:26:20;101736.88;;;-14.65;39.14
42887;BME280;29032;56.028;92.904;2022-12-24T04:31:22;101730.16;;;-14.59;38.86
42887;BME280;29032;56.028;92.904;2022-12-24T04:36:26;101731.81;;;-14.54;39.47
42887;BME280;29032;56.028;92.904;2022-12-24T04:41:28;101713.09;;;-14.51;39.25
42887;BME280;29032;56.028;92.904;2022-12-24T04:46:30;101714.47;;;-14.44;39.43
42887;BME280;29032;56.028;92.904;2022-12-24T04:51:34;101702.56;;;-14.31;39.41
42887;BME280;29032;56.028;92.904;2022-12-24T04:56:36;101690.56;;;-14.22;38.78
42887;BME280;29032;56.028;92.904;2022-12-24T05:01:38;101696.94;;;-14.26;39.25
42887;BME280;29032;56.028;92.904;2022-12-24T05:06:41;101685.97;;;-14.45;39.82
42887;BME280;29032;56.028;92.904;2022-12-24T05:11:44;101680.34;;;-14.40;40.47
42887;BME280;29032;56.028;92.904;2022-12-24T05:16:46;101680.22;;;-14.20;39.72
42887;BME280;29032;56.028;92.904;2022-12-24T05:21:49;101684.25;;;-14.01;39.92
42887;BME280;29032;56.028;92.904;2022-12-24T05:26:53;101669.06;;;-13.94;39.87
42887;BME280;29032;56.028;92.904;2022-12-24T05:31:56;101666.16;;;-13.88;39.85
42887;BME280;29032;56.028;92.904;2022-12-24T05:37:00;101663.63;;;-13.69;39.77
42887;BME280;29032;56.028;92.904;2022-12-24T05:42:02;101658.38;;;-13.50;39.15
42887;BME280;29032;56.028;92.904;2022-12-24T05:47:04;101662.78;;;-13.29;39.67
42887;BME280;29032;56.028;92.904;2022-12-24T05:52:08;101653.81;;;-13.05;39.00
42887;BME280;29032;56.028;92.904;2022-12-24T05:57:10;101647.69;;;-12.87;39.47
42887;BME280;29032;56.028;92.904;2022-12-24T06:02:12;101630.09;;;-12.81;39.42
42887;BME280;29032;56.028;92.904;2022-12-24T06:07:16;101628.53;;;-12.66;39.26
42887;BME280;29032;56.028;92.904;2022-12-24T06:12:18;101622.75;;;-12.48;39.41
42887;BME280;29032;56.028;92.904;2022-12-24T06:17:20;101608.03;;;-12.51;39.26
42887;BME280;29032;56.028;92.904;2022-12-24T06:22:24;101607.66;;;-12.85;39.80
42887;BME280;29032;56.028;92.904;2022-12-24T06:27:26;101598.16;;;-13.10;39.84
42887;BME280;29032;56.028;92.904;2022-12-24T06:32:28;101597.09;;;-13.21;41.14
42887;BME280;29032;56.028;92.904;2022-12-24T06:37:38;101603.03;;;-13.16;41.01
42887;BME280;29032;56.028;92.904;2022-12-24T06:42:40;101596.00;;;-13.04;40.47
42887;BME280;29032;56.028;92.904;2022-12-24T06:47:42;101584.78;;;-12.91;40.67
42887;BME280;29032;56.028;92.904;2022-12-24T06:52:46;101588.28;;;-12.87;41.22
42887;BME280;29032;56.028;92.904;2022-12-24T06:57:48;101581.91;;;-12.78;40.99
42887;BME280;29032;56.028;92.904;2022-12-24T07:02:50;101565.56;;;-12.86;40.75
42887;BME280;29032;56.028;92.904;2022-12-24T07:07:54;101562.72;;;-12.93;40.62
42887;BME280;29032;56.028;92.904;2022-12-24T07:12:56;101555.34;;;-12.96;41.60
42887;BME280;29032;56.028;92.904;2022-12-24T07:18:01;101554.31;;;-12.72;41.51
42887;BME280;29032;56.028;92.904;2022-12-24T07:23:04;101551.03;;;-12.46;41.50
42887;BME280;29032;56.028;92.904;2022-12-24T07:28:06;101540.53;;;-12.32;41.01
42887;BME280;29032;56.028;92.904;2022-12-24T07:33:08;101547.03;;;-12.17;41.10
42887;BME280;29032;56.028;92.904;2022-12-24T07:38:12;101538.00;;;-12.05;40.45
42887;BME280;29032;56.028;92.904;2022-12-24T07:43:14;101526.91;;;-12.00;40.33
42887;BME280;29032;56.028;92.904;2022-12-24T07:48:16;101525.03;;;-11.96;40.10
42887;BME280;29032;56.028;92.904;2022-12-24T07:53:20;101522.88;;;-11.87;40.12
42887;BME280;29032;56.028;92.904;2022-12-24T07:58:24;101526.03;;;-11.85;40.33
42887;BME280;29032;56.028;92.904;2022-12-24T08:03:27;101516.78;;;-11.84;40.58
42887;BME280;29032;56.028;92.904;2022-12-24T08:08:30;101519.50;;;-11.84;40.08
42887;BME280;29032;56.028;92.904;2022-12-24T08:13:33;101516.00;;;-11.84;40.92
42887;BME280;29032;56.028;92.904;2022-12-24T08:18:35;101523.34;;;-11.85;40.60
42887;BME280;29032;56.028;92.904;2022-12-24T08:23:39;101511.78;;;-11.82;40.72
42887;BME280;29032;56.028;92.904;2022-12-24T08:28:41;101501.25;;;-11.87;40.41
42887;BME280;29032;56.028;92.904;2022-12-24T08:33:43;101507.75;;;-12.11;40.62
42887;BME280;29032;56.028;92.904;2022-12-24T08:38:47;101496.91;;;-12.14;41.29
42887;BME280;29032;56.028;92.904;2022-12-24T08:43:49;101495.44;;;-12.08;40.92
42887;BME280;29032;56.028;92.904;2022-12-24T08:48:51;101487.78;;;-12.06;40.99
42887;BME280;29032;56.028;92.904;2022-12-24T08:53:55;101487.38;;;-12.28;40.86
42887;BME280;29032;56.028;92.904;2022-12-24T08:58:57;101476.81;;;-12.52;41.46
42887;BME280;29032;56.028;92.904;2022-12-24T09:04:00;101469.84;;;-12.53;41.94
42887;BME280;29032;56.028;92.904;2022-12-24T09:09:04;101471.28;;;-12.59;41.87
42887;BME280;29032;56.028;92.904;2022-12-24T09:14:06;101473.81;;;-12.66;41.99
42887;BME280;29032;56.028;92.904;2022-12-24T09:19:08;101462.34;;;-12.79;42.21
42887;BME280;29032;56.028;92.904;2022-12-24T09:24:12;101445.69;;;-12.85;42.31
42887;BME280;29032;56.028;92.904;2022-12-24T09:29:14;101453.69;;;-12.88;42.35
42887;BME280;29032;56.028;92.904;2022-12-24T09:34:17;101445.88;;;-12.93;42.18
42887;BME280;29032;56.028;92.904;2022-12-24T09:39:20;101458.97;;;-12.76;42.43
42887;BME280;29032;56.028;92.904;2022-12-24T09:44:35;101453.38;;;-12.67;41.96
42887;BME280;29032;56.028;92.904;2022-12-24T09:49:42;101444.69;;;-12.76;42.38
42887;BME280;29032;56.028;92.904;2022-12-24T09:54:50;101449.81;;;-12.91;42.55
42887;BME280;29032;56.028;92.904;2022-12-24T09:59:57;101452.50;;;-12.91;42.59
42887;BME280;29032;56.028;92.904;2022-12-24T10:04:59;101450.88;;;-12.76;42.16
42887;BME280;29032;56.028;92.904;2022-12-24T10:10:12;101455.69;;;-12.66;42.36
42887;BME280;29032;56.028;92.904;2022-12-24T10:15:23;101448.53;;;-12.77;42.71
42887;BME280;29032;56.028;92.904;2022-12-24T10:20:33;101453.78;;;-12.85;42.79
42887;BME280;29032;56.028;92.904;2022-12-24T10:25:44;101450.09;;;-12.76;42.86
42887;BME280;29032;56.028;92.904;2022-12-24T10:30:50;101441.22;;;-12.58;42.97
42887;BME280;29032;56.028;92.904;2022-12-24T10:35:56;101437.88;;;-12.51;42.79
42887;BME280;29032;56.028;92.904;2022-12-24T10:41:00;101442.72;;;-12.60;42.80
42887;BME280;29032;56.028;92.904;2022-12-24T10:46:05;101427.22;;;-12.63;42.72
42887;BME280;29032;56.028;92.904;2022-12-24T10:51:17;101439.78;;;-12.52;42.57
42887;BME280;29032;56.028;92.904;2022-12-24T10:56:22;101437.19;;;-12.48;42.49
42887;BME280;29032;56.028;92.904;2022-12-24T11:01:42;101429.22;;;-12.41;42.67
42887;BME280;29032;56.028;92.904;2022-12-24T11:06:52;101433.63;;;-12.33;42.22
42887;BME280;29032;56.028;92.904;2022-12-24T11:11:57;101441.38;;;-12.08;42.07
42887;BME280;29032;56.028;92.904;2022-12-24T11:17:01;101431.97;;;-11.95;41.44
42887;BME280;29032;56.028;92.904;2022-12-24T11:22:05;101437.75;;;-11.97;41.23
42887;BME280;29032;56.028;92.904;2022-12-24T11:27:37;101418.47;;;-11.95;41.59
42887;BME280;29032;56.028;92.904;2022-12-24T11:32:41;101415.22;;;-12.04;41.74
42887;BME280;29032;56.028;92.904;2022-12-24T11:38:08;101402.84;;;-12.05;42.15
42887;BME280;29032;56.028;92.904;2022-12-24T11:43:15;101413.84;;;-11.94;42.05
42887;BME280;29032;56.028;92.904;2022-12-24T11:48:27;101406.72;;;-11.83;42.37
42887;BME280;29032;56.028;92.904;2022-12-24T11:53:35;101403.88;;;-11.90;42.38
42887;BME280;29032;56.028;92.904;2022-12-24T11:58:43;101409.94;;;-11.97;42.34
42887;BME280;29032;56.028;92.904;2022-12-24T12:03:48;101408.63;;;-11.84;42.11
42887;BME280;29032;56.028;92.904;2022-12-24T12:08:54;101410.00;;;-11.93;42.35
42887;BME280;29032;56.028;92.904;2022-12-24T12:13:59;101391.44;;;-11.95;42.42
42887;BME280;29032;56.028;92.904;2022-12-24T12:19:03;101391.50;;;-11.68;41.09
42887;BME280;29032;56.028;92.904;2022-12-24T12:24:11;101381.94;;;-11.62;42.61
42887;BME280;29032;56.028;92.904;2022-12-24T12:29:23;101376.63;;;-11.55;41.90
42887;BME280;29032;56.028;92.904;2022-12-24T12:34:30;101382.94;;;-11.48;42.14
42887;BME280;29032;56.028;92.904;2022-12-24T12:39:35;101379.44;;;-11.48;42.36
42887;BME280;29032;56.028;92.904;2022-12-24T12:45:00;101371.91;;;-11.35;41.96
42887;BME280;29032;56.028;92.904;2022-12-24T12:50:09;101373.84;;;-11.36;42.31
42887;BME280;29032;56.028;92.904;2022-12-24T12:55:23;101361.44;;;-11.37;41.71
42887;BME280;29032;56.028;92.904;2022-12-24T13:00:35;101378.41;;;-11.40;42.14
42887;BME280;29032;56.028;92.904;2022-12-24T13:11:39;101363.25;;;-11.18;41.03
42887;BME280;29032;56.028;92.904;2022-12-24T13:17:25;101370.06;;;-11.01;40.68
42887;BME280;29032;56.028;92.904;2022-12-24T13:22:33;101356.72;;;-10.87;39.34
42887;BME280;29032;56.028;92.904;2022-12-24T13:27:35;101352.25;;;-10.72;38.72
42887;BME280;29032;56.028;92.904;2022-12-24T13:32:46;101349.63;;;-10.62;39.37
42887;BME280;29032;56.028;92.904;2022-12-24T13:37:50;101342.28;;;-10.61;38.57
42887;BME280;29032;56.028;92.904;2022-12-24T13:43:06;101340.09;;;-10.48;39.45
42887;BME280;29032;56.028;92.904;2022-12-24T13:48:30;101337.78;;;-10.46;39.86
42887;BME280;29032;56.028;92.904;2022-12-24T13:53:39;101334.59;;;-10.55;39.86
42887;BME280;29032;56.028;92.904;2022-12-24T13:58:45;101330.91;;;-10.74;39.32
42887;BME280;29032;56.028;92.904;2022-12-24T14:03:51;101329.38;;;-11.08;39.52
42887;BME280;29032;56.028;92.904;2022-12-24T14:08:56;101312.38;;;-11.05;40.70
42887;BME280;29032;56.028;92.904;2022-12-24T14:14:10;101313.28;;;-10.94;40.40
42887;BME280;29032;56.028;92.904;2022-12-24T14:19:17;101302.63;;;-11.10;40.14
42887;BME280;29032;56.028;92.904;2022-12-24T14:24:23;101300.03;;;-11.03;39.58
42887;BME280;29032;56.028;92.904;2022-12-24T14:29:32;101299.91;;;-10.80;40.77
42887;BME280;29032;56.028;92.904;2022-12-24T14:41:30;101288.25;;;-10.84;40.41
42887;BME280;29032;56.028;92.904;2022-12-24T14:46:40;101276.59;;;-10.88;41.03
42887;BME280;29032;56.028;92.904;2022-12-24T14:51:49;101267.06;;;-10.75;41.18
42887;BME280;29032;56.028;92.904;2022-12-24T14:57:18;101266.50;;;-10.54;40.91
42887;BME280;29032;56.028;92.904;2022-12-24T15:02:37;101250.66;;;-10.52;40.53
42887;BME280;29032;56.028;92.904;2022-12-24T15:07:42;101254.09;;;-10.58;41.07
42887;BME280;29032;56.028;92.904;2022-12-24T15:12:48;101252.25;;;-10.47;40.34
42887;BME280;29032;56.028;92.904;2022-12-24T15:17:51;101239.03;;;-10.52;40.62
42887;BME280;29032;56.028;92.904;2022-12-24T15:22:57;101235.91;;;-10.58;41.10
42887;BME280;29032;56.028;92.904;2022-12-24T15:28:01;101225.84;;;-10.57;41.28
42887;BME280;29032;56.028;92.904;2022-12-24T15:33:04;101218.63;;;-10.39;40.80
42887;BME280;29032;56.028;92.904;2022-12-24T15:38:25;101223.03;;;-10.24;40.65
42887;BME280;29032;56.028;92.904;2022-12-24T15:43:31;101217.72;;;-10.10;40.11
42887;BME280;29032;56.028;92.904;2022-12-24T15:48:34;101201.78;;;-10.15;39.95
42887;BME280;29032;56.028;92.904;2022-12-24T15:53:41;101209.53;;;-10.17;40.69
42887;BME280;29032;56.028;92.904;2022-12-24T15:58:45;101211.19;;;-9.98;40.29
42887;BME280;29032;56.028;92.904;2022-12-24T16:03:58;101207.63;;;-10.09;40.19
42887;BME280;29032;56.028;92.904;2022-12-24T16:09:00;101200.28;;;-10.09;39.76
42887;BME280;29032;56.028;92.904;2022-12-24T16:14:24;101194.22;;;-9.88;39.58
42887;BME280;29032;56.028;92.904;2022-12-24T16:19:29;101187.28;;;-9.78;39.06
42887;BME280;29032;56.028;92.904;2022-12-24T16:24:34;101189.69;;;-9.66;39.13
42887;BME280;29032;56.028;92.904;2022-12-24T16:29:38;101192.81;;;-9.57;39.37
42887;BME280;29032;56.028;92.904;2022-12-24T16:34:40;101190.09;;;-9.57;38.58
42887;BME280;29032;56.028;92.904;2022-12-24T16:39:42;101186.22;;;-9.56;38.64
42887;BME280;29032;56.028;92.904;2022-12-24T16:44:51;101185.09;;;-9.48;39.11
42887;BME280;29032;56.028;92.904;2022-12-24T16:49:55;101181.56;;;-9.59;38.51
42887;BME280;29032;56.028;92.904;2022-12-24T16:54:58;101176.47;;;-9.71;39.02
42887;BME280;29032;56.028;92.904;2022-12-24T17:00:14;101169.84;;;-9.77;39.34
42887;BME280;29032;56.028;92.904;2022-12-24T17:05:23;101167.19;;;-9.63;38.83
42887;BME280;29032;56.028;92.904;2022-12-24T17:10:26;101171.91;;;-9.53;38.73
42887;BME280;29032;56.028;92.904;2022-12-24T17:15:30;101166.91;;;-9.36;38.83
42887;BME280;29032;56.028;92.904;2022-12-24T17:20:32;101163.41;;;-9.33;37.98
42887;BME280;29032;56.028;92.904;2022-12-24T17:25:35;101172.66;;;-9.56;38.81
42887;BME280;29032;56.028;92.904;2022-12-24T17:30:40;101174.19;;;-9.55;39.20
42887;BME280;29032;56.028;92.904;2022-12-24T17:35:43;101172.69;;;-9.49;39.33
42887;BME280;29032;56.028;92.904;2022-12-24T17:40:45;101176.59;;;-9.39;38.60
42887;BME280;29032;56.028;92.904;2022-12-24T17:45:48;101167.72;;;-9.32;38.59
42887;BME280;29032;56.028;92.904;2022-12-24T17:50:51;101157.25;;;-9.30;38.21
42887;BME280;29032;56.028;92.904;2022-12-24T17:55:53;101163.47;;;-9.23;38.29
42887;BME280;29032;56.028;92.904;2022-12-24T18:00:57;101162.72;;;-9.16;38.84
42887;BME280;29032;56.028;92.904;2022-12-24T18:06:02;101169.63;;;-9.33;38.65
42887;BME280;29032;56.028;92.904;2022-12-24T18:11:10;101166.50;;;-9.42;38.61
42887;BME280;29032;56.028;92.904;2022-12-24T18:16:15;101160.25;;;-9.57;39.00
42887;BME280;29032;56.028;92.904;2022-12-24T18:21:19;101159.53;;;-9.46;39.01
42887;BME280;29032;56.028;92.904;2022-12-24T18:26:22;101161.47;;;-9.36;38.88
42887;BME280;29032;56.028;92.904;2022-12-24T18:31:26;101156.47;;;-9.27;37.79
42887;BME280;29032;56.028;92.904;2022-12-24T18:36:29;101151.81;;;-9.30;38.68
42887;BME280;29032;56.028;92.904;2022-12-24T18:41:32;101158.00;;;-9.26;38.15
42887;BME280;29032;56.028;92.904;2022-12-24T18:46:35;101149.38;;;-9.57;38.34
42887;BME280;29032;56.028;92.904;2022-12-24T18:51:37;101141.53;;;-9.83;38.82
42887;BME280;29032;56.028;92.904;2022-12-24T18:56:39;101141.84;;;-10.02;38.92
42887;BME280;29032;56.028;92.904;2022-12-24T19:01:43;101155.81;;;-9.93;39.80
42887;BME280;29032;56.028;92.904;2022-12-24T19:06:45;101151.59;;;-9.87;39.18
42887;BME280;29032;56.028;92.904;2022-12-24T19:11:48;101153.22;;;-9.68;38.59
42887;BME280;29032;56.028;92.904;2022-12-24T19:16:51;101150.56;;;-9.51;38.90
42887;BME280;29032;56.028;92.904;2022-12-24T19:21:54;101149.41;;;-9.50;37.93
42887;BME280;29032;56.028;92.904;2022-12-24T19:26:56;101149.44;;;-9.42;38.24
42887;BME280;29032;56.028;92.904;2022-12-24T19:32:00;101139.34;;;-9.49;37.82
42887;BME280;29032;56.028;92.904;2022-12-24T19:37:02;101139.34;;;-9.53;38.07
42887;BME280;29032;56.028;92.904;2022-12-24T19:42:04;101144.78;;;-9.45;37.93
42887;BME280;29032;56.028;92.904;2022-12-24T19:47:08;101156.81;;;-9.46;37.94
42887;BME280;29032;56.028;92.904;2022-12-24T19:52:10;101142.38;;;-9.61;38.29
42887;BME280;29032;56.028;92.904;2022-12-24T19:57:12;101148.16;;;-9.70;38.19
42887;BME280;29032;56.028;92.904;2022-12-24T20:02:16;101155.53;;;-9.74;37.95
42887;BME280;29032;56.028;92.904;2022-12-24T20:07:18;101144.97;;;-9.90;38.71
42887;BME280;29032;56.028;92.904;2022-12-24T20:12:20;101141.38;;;-10.12;38.78
42887;BME280;29032;56.028;92.904;2022-12-24T20:17:24;101147.53;;;-10.22;39.11
42887;BME280;29032;56.028;92.904;2022-12-24T20:22:26;101137.41;;;-10.25;39.45
42887;BME280;29032;56.028;92.904;2022-12-24T20:27:28;101128.13;;;-10.27;39.56
42887;BME280;29032;56.028;92.904;2022-12-24T20:32:32;101122.75;;;-10.24;39.27
42887;BME280;29032;56.028;92.904;2022-12-24T20:37:34;101137.31;;;-10.39;39.14
42887;BME280;29032;56.028;92.904;2022-12-24T20:42:36;101143.47;;;-10.49;39.69
42887;BME280;29032;56.028;92.904;2022-12-24T20:47:40;101124.13;;;-10.48;39.61
42887;BME280;29032;56.028;92.904;2022-12-24T20:52:42;101127.63;;;-10.44;39.59
42887;BME280;29032;56.028;92.904;2022-12-24T20:57:47;101132.63;;;-10.49;39.55
42887;BME280;29032;56.028;92.904;2022-12-24T21:02:50;101129.44;;;-10.62;39.80
42887;BME280;29032;56.028;92.904;2022-12-24T21:07:52;101126.34;;;-10.61;39.80
42887;BME280;29032;56.028;92.904;2022-12-24T21:12:54;101118.00;;;-10.34;39.91
42887;BME280;29032;56.028;92.904;2022-12-24T21:17:59;101127.50;;;-9.99;39.08
42887;BME280;29032;56.028;92.904;2022-12-24T21:23:01;101109.31;;;-9.99;38.42
42887;BME280;29032;56.028;92.904;2022-12-24T21:28:04;101120.56;;;-9.93;39.15
42887;BME280;29032;56.028;92.904;2022-12-24T21:33:07;101110.88;;;-9.94;38.67
42887;BME280;29032;56.028;92.904;2022-12-24T21:38:09;101113.13;;;-10.07;39.56
42887;BME280;29032;56.028;92.904;2022-12-24T21:43:15;101118.56;;;-10.04;39.34
42887;BME280;29032;56.028;92.904;2022-12-24T21:48:26;101122.03;;;-10.07;39.36
42887;BME280;29032;56.028;92.904;2022-12-24T21:53:28;101120.38;;;-10.29;39.54
42887;BME280;29032;56.028;92.904;2022-12-24T21:58:30;101110.91;;;-10.56;40.26
42887;BME280;29032;56.028;92.904;2022-12-24T22:03:33;101107.69;;;-10.73;40.08
42887;BME280;29032;56.028;92.904;2022-12-24T22:08:36;101110.22;;;-10.94;40.58
42887;BME280;29032;56.028;92.904;2022-12-24T22:13:38;101115.50;;;-11.08;41.22
42887;BME280;29032;56.028;92.904;2022-12-24T22:18:41;101110.13;;;-11.05;41.23
42887;BME280;29032;56.028;92.904;2022-12-24T22:23:43;101102.66;;;-11.19;41.00
42887;BME280;29032;56.028;92.904;2022-12-24T22:28:45;101114.94;;;-11.28;41.50
42887;BME280;29032;56.028;92.904;2022-12-24T22:33:49;101108.69;;;-11.32;41.75
42887;BME280;29032;56.028;92.904;2022-12-24T22:38:52;101108.69;;;-11.32;41.92
42887;BME280;29032;56.028;92.904;2022-12-24T22:43:54;101111.03;;;-11.31;41.73
42887;BME280;29032;56.028;92.904;2022-12-24T22:48:58;101109.22;;;-11.20;42.53
42887;BME280;29032;56.028;92.904;2022-12-24T22:54:00;101111.53;;;-11.22;42.80
42887;BME280;29032;56.028;92.904;2022-12-24T22:59:02;101113.44;;;-11.22;42.98
42887;BME280;29032;56.028;92.904;2022-12-24T23:04:07;101109.38;;;-11.43;43.33
42887;BME280;29032;56.028;92.904;2022-12-24T23:09:11;101116.03;;;-11.33;43.78
42887;BME280;29032;56.028;92.904;2022-12-24T23:14:15;101114.81;;;-11.39;43.34
42887;BME280;29032;56.028;92.904;2022-12-24T23:19:19;101121.69;;;-11.45;43.40
42887;BME280;29032;56.028;92.904;2022-12-24T23:24:21;101117.19;;;-11.34;43.19
42887;BME280;29032;56.028;92.904;2022-12-24T23:29:24;101123.00;;;-11.32;43.07
42887;BME280;29032;56.028;92.904;2022-12-24T23:34:27;101125.06;;;-11.18;42.55
42887;BME280;29032;56.028;92.904;2022-12-24T23:39:29;101135.94;;;-11.15;43.67
42887;BME280;29032;56.028;92.904;2022-12-24T23:44:32;101137.19;;;-11.08;43.12
42887;BME280;29032;56.028;92.904;2022-12-24T23:49:35;101139.53;;;-11.03;43.53
42887;BME280;29032;56.028;92.904;2022-12-24T23:54:37;101140.00;;;-10.94;43.43
42887;BME280;29032;56.028;92.904;2022-12-24T23:59:40;101147.16;;;-10.72;43.04
